Time;durP1;ratioP1;P1;durP2;ratioP2;P2;SDS_P1;SDS_P2;PMS_P1;PMS_P2;Temp;Humidity;BMP_temperature;BMP_pressure;BME280_temperature;BME280_humidity;BME280_pressure;Samples;Min_cycle;Max_cycle;Signal;HPM_P1;HPM_P2
2022/07/21 00:02:54;;;;;;;19.75;17.73;;;21.60;99.90;;;;;;7023110;28;20473;-78
2022/07/21 00:06:16;;;;;;;18.95;17.08;;;21.50;99.90;;;;;;7023561;28;20431;-77
2022/07/21 00:09:38;;;;;;;18.63;16.73;;;21.60;99.90;;;;;;7069432;28;20425;-79
2022/07/21 00:13:01;;;;;;;18.27;16.48;;;21.60;99.90;;;;;;7069068;28;20430;-79
2022/07/21 00:16:24;;;;;;;18.13;16.35;;;21.60;99.90;;;;;;7045716;28;20431;-80
2022/07/21 00:19:46;;;;;;;20.40;18.35;;;21.60;99.90;;;;;;7049279;28;20418;-79
2022/07/21 00:23:08;;;;;;;20.77;18.57;;;21.60;99.90;;;;;;7049872;28;20903;-79
2022/07/21 00:26:30;;;;;;;20.55;18.30;;;21.60;99.90;;;;;;7054495;28;20458;-80
2022/07/21 00:29:52;;;;;;;20.50;18.50;;;21.60;99.90;;;;;;7063150;28;20438;-80
2022/07/21 00:33:16;;;;;;;20.58;18.42;;;21.60;99.90;;;;;;7050717;28;20436;-81
2022/07/21 00:36:38;;;;;;;21.10;18.85;;;21.60;99.90;;;;;;7039685;28;20442;-80
2022/07/21 00:40:00;;;;;;;20.27;18.20;;;21.70;99.90;;;;;;7044145;28;20434;-80
2022/07/21 00:43:22;;;;;;;20.90;18.75;;;21.70;99.90;;;;;;7033980;28;20897;-78
2022/07/21 00:46:46;;;;;;;21.10;18.67;;;21.80;99.90;;;;;;7048709;28;20443;-81
2022/07/21 00:50:13;;;;;;;20.27;18.17;;;21.80;99.90;;;;;;7002724;28;20438;-79
2022/07/21 00:53:35;;;;;;;20.95;18.67;;;21.80;99.90;;;;;;7004717;28;20468;-80
2022/07/21 00:56:57;;;;;;;20.95;18.58;;;21.80;99.90;;;;;;7031622;28;20452;-78
2022/07/21 01:00:29;;;;;;;20.52;18.42;;;21.80;99.90;;;;;;7047384;28;20424;-77
2022/07/21 01:03:51;;;;;;;19.60;17.52;;;21.80;99.90;;;;;;7026788;28;20823;-79
2022/07/21 01:07:16;;;;;;;19.13;17.23;;;21.70;99.90;;;;;;7037657;28;20433;-77
2022/07/21 01:10:38;;;;;;;19.77;17.70;;;21.80;99.90;;;;;;7026606;28;20456;-78
2022/07/21 01:14:00;;;;;;;19.77;17.73;;;21.80;99.90;;;;;;7033091;28;20434;-77
2022/07/21 01:17:22;;;;;;;19.73;17.73;;;21.60;99.90;;;;;;7033805;28;20434;-80
2022/07/21 01:20:53;;;;;;;20.80;18.65;;;21.50;99.90;;;;;;7027249;28;20421;-80
2022/07/21 01:24:17;;;;;;;21.77;19.48;;;21.50;99.90;;;;;;7056148;28;20428;-82
2022/07/21 01:27:39;;;;;;;22.27;19.85;;;21.40;99.90;;;;;;7051186;28;20451;-79
2022/07/21 01:31:01;;;;;;;23.27;20.40;;;21.40;99.90;;;;;;7027158;28;20437;-81
2022/07/21 01:34:23;;;;;;;24.80;20.80;;;21.30;99.90;;;;;;7026271;28;20491;-80
2022/07/21 01:37:48;;;;;;;22.15;19.85;;;21.30;99.90;;;;;;7032403;28;20428;-80
2022/07/21 01:41:28;;;;;;;22.00;18.90;;;21.30;99.90;;;;;;7047537;28;20430;-80
2022/07/21 01:44:51;;;;;;;22.85;20.38;;;21.30;99.90;;;;;;7025772;28;20441;-80
2022/07/21 01:48:13;;;;;;;22.63;20.27;;;21.20;99.90;;;;;;7045933;28;20424;-78
2022/07/21 01:51:36;;;;;;;22.20;19.80;;;21.10;99.90;;;;;;7052872;28;20432;-80
2022/07/21 01:54:58;;;;;;;20.63;18.45;;;21.10;99.90;;;;;;7051005;28;20435;-79
2022/07/21 01:58:21;;;;;;;22.17;18.70;;;21.20;99.90;;;;;;7044575;28;20430;-80
2022/07/21 02:01:43;;;;;;;21.80;19.58;;;21.10;99.90;;;;;;7023853;28;20469;-78
2022/07/21 02:05:06;;;;;;;20.30;18.20;;;21.20;99.90;;;;;;7025752;28;20426;-78
2022/07/21 02:08:28;;;;;;;20.05;17.90;;;21.10;99.90;;;;;;7035556;28;20994;-77
2022/07/21 02:11:50;;;;;;;21.02;18.15;;;21.20;99.90;;;;;;7038488;28;20428;-78
2022/07/21 02:15:13;;;;;;;19.60;17.53;;;21.20;99.90;;;;;;7047772;28;20960;-80
2022/07/21 02:18:36;;;;;;;16.45;14.45;;;21.20;99.90;;;;;;7049010;28;20434;-80
2022/07/21 02:21:58;;;;;;;16.17;14.40;;;21.10;99.90;;;;;;7043186;28;20441;-80
2022/07/21 02:25:21;;;;;;;15.48;12.77;;;21.10;99.90;;;;;;7019005;28;20464;-80
2022/07/21 02:28:43;;;;;;;14.68;12.45;;;21.10;99.90;;;;;;7041514;28;20436;-79
2022/07/21 02:32:07;;;;;;;14.17;11.83;;;21.10;99.90;;;;;;7037107;28;20430;-78
2022/07/21 02:35:29;;;;;;;15.05;12.90;;;21.10;99.90;;;;;;7031350;28;20463;-77
2022/07/21 02:38:51;;;;;;;15.27;12.43;;;21.00;99.90;;;;;;7038007;28;20426;-77
2022/07/21 02:42:13;;;;;;;14.32;12.10;;;20.90;99.90;;;;;;7045373;28;20890;-77
2022/07/21 02:45:36;;;;;;;14.30;12.23;;;20.90;99.90;;;;;;7027054;28;20791;-78
2022/07/21 02:49:00;;;;;;;12.88;11.57;;;21.00;99.90;;;;;;7028783;28;20440;-79
2022/07/21 02:52:22;;;;;;;13.43;11.50;;;21.00;99.90;;;;;;7045140;28;20420;-78
2022/07/21 02:55:45;;;;;;;13.55;10.95;;;21.00;99.90;;;;;;7045108;28;20428;-78
2022/07/21 02:59:07;;;;;;;12.30;11.00;;;21.00;99.90;;;;;;7048929;28;20913;-78
2022/07/21 03:02:29;;;;;;;12.57;11.27;;;21.00;99.90;;;;;;7040282;28;20429;-78
2022/07/21 03:05:53;;;;;;;12.25;10.95;;;21.10;99.90;;;;;;7024027;28;20448;-78
2022/07/21 03:09:15;;;;;;;14.10;10.43;;;21.10;99.90;;;;;;7040627;28;20432;-79
2022/07/21 03:12:37;;;;;;;11.95;10.68;;;21.10;99.90;;;;;;7051016;28;20428;-79
2022/07/21 03:15:59;;;;;;;11.43;10.05;;;21.10;99.90;;;;;;7024008;28;20434;-79
2022/07/21 03:19:21;;;;;;;11.80;10.32;;;21.20;99.90;;;;;;7015114;28;20429;-79
2022/07/21 03:22:45;;;;;;;11.60;10.40;;;21.20;99.90;;;;;;7042613;28;20435;-80
2022/07/21 03:26:07;;;;;;;11.73;10.00;;;21.20;99.90;;;;;;7051242;28;20767;-80
2022/07/21 03:29:29;;;;;;;13.73;10.80;;;21.20;99.90;;;;;;7027378;28;20508;-80
2022/07/21 03:32:52;;;;;;;12.63;10.05;;;21.20;99.90;;;;;;7048580;28;20529;-78
2022/07/21 03:36:14;;;;;;;12.10;10.20;;;21.20;99.90;;;;;;7049119;28;20903;-79
2022/07/21 03:39:38;;;;;;;12.80;10.43;;;21.20;99.90;;;;;;7028561;28;20429;-79
2022/07/21 03:43:03;;;;;;;13.10;10.52;;;21.20;99.90;;;;;;7027667;28;20432;-78
2022/07/21 03:46:25;;;;;;;13.38;10.75;;;21.20;99.90;;;;;;7032315;28;20917;-75
2022/07/21 03:49:47;;;;;;;11.30;9.77;;;21.10;99.90;;;;;;7026879;28;20883;-79
2022/07/21 03:53:10;;;;;;;11.47;10.00;;;21.10;99.90;;;;;;7022415;28;20513;-78
2022/07/21 03:56:33;;;;;;;12.13;9.68;;;21.10;99.90;;;;;;7022298;28;20430;-78
2022/07/21 03:59:55;;;;;;;12.00;10.13;;;21.20;99.90;;;;;;7023126;28;20899;-77
2022/07/21 04:03:17;;;;;;;12.23;9.38;;;21.20;99.90;;;;;;7021843;28;20472;-78
2022/07/21 04:06:39;;;;;;;12.55;9.73;;;21.20;99.90;;;;;;7026169;28;20421;-77
2022/07/21 04:10:01;;;;;;;11.82;9.55;;;21.20;99.90;;;;;;7031584;28;20795;-77
2022/07/21 04:13:24;;;;;;;10.07;8.88;;;21.20;99.90;;;;;;7027347;28;20911;-77
2022/07/21 04:16:46;;;;;;;11.27;9.43;;;21.30;99.90;;;;;;7028383;28;20953;-77
2022/07/21 04:20:10;;;;;;;13.18;10.20;;;21.20;99.90;;;;;;7028040;28;20464;-78
2022/07/21 04:23:32;;;;;;;11.77;9.43;;;21.20;99.90;;;;;;7030958;28;20438;-78
2022/07/21 04:26:54;;;;;;;10.70;9.60;;;21.10;99.90;;;;;;7000474;28;20424;-78
2022/07/21 04:30:21;;;;;;;11.25;9.75;;;21.00;99.90;;;;;;6999675;28;20470;-77
2022/07/21 04:33:43;;;;;;;11.05;9.23;;;21.00;99.90;;;;;;6999996;28;20787;-78
2022/07/21 04:37:05;;;;;;;11.73;9.63;;;21.00;99.90;;;;;;7007388;28;20799;-77
2022/07/21 04:40:28;;;;;;;12.40;9.63;;;21.00;99.90;;;;;;7028735;28;20437;-76
2022/07/21 04:43:50;;;;;;;11.40;9.57;;;21.00;99.90;;;;;;7026774;28;20438;-78
2022/07/21 04:47:13;;;;;;;11.55;9.85;;;21.10;99.90;;;;;;7027686;28;20464;-79
2022/07/21 04:50:35;;;;;;;11.65;9.73;;;21.10;99.90;;;;;;7027793;28;20783;-77
2022/07/21 04:53:57;;;;;;;13.18;10.40;;;21.10;99.90;;;;;;7026641;28;20833;-77
2022/07/21 04:57:19;;;;;;;12.87;10.70;;;21.10;99.90;;;;;;7026521;28;20449;-79
2022/07/21 05:00:41;;;;;;;12.15;10.48;;;21.10;99.90;;;;;;7026400;28;20429;-77
2022/07/21 05:04:06;;;;;;;13.27;10.77;;;21.20;99.90;;;;;;7026895;28;20796;-79
2022/07/21 05:07:28;;;;;;;12.98;11.52;;;21.20;99.90;;;;;;7022015;28;20432;-76
2022/07/21 05:10:51;;;;;;;12.70;11.18;;;21.10;99.90;;;;;;7021364;28;20464;-78
2022/07/21 05:14:13;;;;;;;12.85;10.55;;;21.20;99.90;;;;;;7029678;28;20468;-76
2022/07/21 05:17:35;;;;;;;13.20;11.27;;;21.30;99.90;;;;;;7025624;28;20472;-76
2022/07/21 05:20:59;;;;;;;12.75;10.70;;;21.30;99.90;;;;;;7026616;28;20437;-78
2022/07/21 05:24:21;;;;;;;12.23;10.57;;;21.30;99.90;;;;;;7029543;28;20449;-78
2022/07/21 05:27:43;;;;;;;13.15;10.50;;;21.40;99.90;;;;;;7025153;28;20488;-79
2022/07/21 05:31:06;;;;;;;12.52;11.10;;;21.50;99.90;;;;;;7026440;28;20430;-77
2022/07/21 05:34:28;;;;;;;14.63;11.88;;;21.40;99.90;;;;;;7026553;28;20784;-78
2022/07/21 05:37:52;;;;;;;13.82;11.98;;;21.60;99.90;;;;;;7026517;28;20434;-78
2022/07/21 05:41:14;;;;;;;14.60;12.80;;;21.60;99.90;;;;;;7035192;28;20425;-78
2022/07/21 05:44:36;;;;;;;14.25;12.48;;;21.60;99.90;;;;;;7040035;28;20504;-78
2022/07/21 05:47:58;;;;;;;14.75;11.65;;;21.60;99.90;;;;;;7041159;28;20425;-74
2022/07/21 05:51:20;;;;;;;14.43;12.10;;;21.60;99.90;;;;;;7037702;28;20438;-78
2022/07/21 05:54:43;;;;;;;14.77;11.70;;;21.70;99.90;;;;;;7027274;28;20417;-78
2022/07/21 05:58:05;;;;;;;14.30;12.18;;;21.70;99.90;;;;;;7025326;28;20433;-77
2022/07/21 06:01:27;;;;;;;14.07;11.27;;;21.70;99.90;;;;;;7026063;28;20426;-77
2022/07/21 06:04:50;;;;;;;13.35;11.63;;;21.70;99.90;;;;;;7025799;28;20434;-77
2022/07/21 06:08:12;;;;;;;15.10;13.27;;;21.80;99.90;;;;;;7025148;28;20437;-76
2022/07/21 06:11:35;;;;;;;16.00;13.80;;;21.80;99.90;;;;;;7023919;28;20528;-78
2022/07/21 06:14:57;;;;;;;15.20;13.60;;;21.90;99.90;;;;;;7005592;28;20924;-78
2022/07/21 06:18:19;;;;;;;16.58;13.60;;;21.90;99.90;;;;;;6997221;28;20432;-77
2022/07/21 06:21:41;;;;;;;16.00;13.82;;;21.90;99.90;;;;;;6997288;28;20912;-78
2022/07/21 06:25:05;;;;;;;15.73;13.35;;;22.00;99.90;;;;;;7001599;28;20460;-79
2022/07/21 06:28:28;;;;;;;16.13;13.68;;;22.10;99.90;;;;;;7025987;28;20426;-75
2022/07/21 06:31:50;;;;;;;10.50;7.60;;;21.90;99.90;;;;;;7023149;28;20930;-76
2022/07/21 06:35:12;;;;;;;15.40;13.75;;;22.20;99.90;;;;;;7023942;28;20891;-75
2022/07/21 06:38:34;;;;;;;14.50;12.50;;;22.30;99.90;;;;;;7025377;28;20436;-75
2022/07/21 06:41:56;;;;;;;14.55;12.88;;;22.30;99.90;;;;;;7025307;28;20430;-77
2022/07/21 06:45:20;;;;;;;15.68;12.70;;;22.40;99.90;;;;;;7025106;28;20446;-75
2022/07/21 06:48:42;;;;;;;15.00;12.90;;;22.30;99.90;;;;;;7025070;28;20429;-75
2022/07/21 06:52:05;;;;;;;14.07;12.57;;;22.40;99.90;;;;;;7024554;28;20434;-76
2022/07/21 06:55:28;;;;;;;12.73;11.10;;;22.30;99.90;;;;;;7025239;28;20426;-78
2022/07/21 06:58:50;;;;;;;12.38;10.93;;;22.00;99.90;;;;;;7014782;28;20993;-76
2022/07/21 07:02:13;;;;;;;11.98;10.13;;;22.00;99.90;;;;;;7011055;28;20432;-75
2022/07/21 07:05:36;;;;;;;12.35;10.43;;;22.00;99.90;;;;;;7024608;28;20429;-75
2022/07/21 07:08:58;;;;;;;11.63;9.18;;;22.00;99.90;;;;;;7024283;28;20879;-75
2022/07/21 07:12:20;;;;;;;11.25;8.95;;;22.10;99.90;;;;;;7024736;28;21025;-75
2022/07/21 07:15:42;;;;;;;13.18;9.50;;;22.10;99.90;;;;;;7023475;28;20488;-75
2022/07/21 07:19:07;;;;;;;10.97;9.70;;;22.10;99.90;;;;;;7022012;28;20486;-74
2022/07/21 07:22:30;;;;;;;11.13;8.95;;;22.00;99.90;;;;;;7018698;28;20439;-75
2022/07/21 07:25:52;;;;;;;10.68;8.85;;;22.20;99.90;;;;;;7001324;28;20817;-77
2022/07/21 07:29:14;;;;;;;11.23;8.90;;;22.30;99.90;;;;;;7014252;28;20461;-75
2022/07/21 07:32:36;;;;;;;13.15;8.70;;;22.40;99.90;;;;;;6992488;28;20463;-75
2022/07/21 07:36:00;;;;;;;14.95;9.05;;;22.60;99.90;;;;;;6989210;28;20574;-75
2022/07/21 07:39:22;;;;;;;11.88;8.55;;;22.60;99.90;;;;;;6982498;28;20527;-75
2022/07/21 07:42:44;;;;;;;11.90;8.48;;;22.70;99.90;;;;;;7001964;28;20540;-75
2022/07/21 07:46:07;;;;;;;11.70;8.20;;;22.70;99.90;;;;;;6998489;28;20529;-75
2022/07/21 07:49:29;;;;;;;9.68;8.23;;;22.80;99.90;;;;;;6999111;28;20436;-74
2022/07/21 07:52:53;;;;;;;12.13;8.70;;;22.90;99.90;;;;;;6997705;28;20441;-75
2022/07/21 07:56:15;;;;;;;10.43;8.00;;;22.90;99.90;;;;;;7023628;28;20422;-75
2022/07/21 07:59:37;;;;;;;15.15;8.80;;;22.80;99.90;;;;;;7025823;28;20440;-77
2022/07/21 08:02:59;;;;;;;11.98;8.13;;;22.80;99.90;;;;;;7025700;28;20477;-75
2022/07/21 08:06:21;;;;;;;11.57;8.32;;;22.90;99.90;;;;;;7025344;28;20429;-76
2022/07/21 08:09:44;;;;;;;10.63;7.95;;;23.00;99.90;;;;;;7026436;28;20433;-75
2022/07/21 08:13:08;;;;;;;10.40;7.55;;;23.10;99.90;;;;;;7025658;28;20877;-77
2022/07/21 08:16:30;;;;;;;11.10;7.80;;;23.10;99.90;;;;;;7024583;28;20430;-76
2022/07/21 08:19:52;;;;;;;10.03;7.53;;;23.20;99.80;;;;;;7023364;28;20418;-75
2022/07/21 08:23:16;;;;;;;10.35;7.50;;;23.20;99.90;;;;;;7025140;28;20475;-75
2022/07/21 08:26:39;;;;;;;9.97;7.67;;;23.20;99.40;;;;;;7024986;28;20433;-75
2022/07/21 08:30:01;;;;;;;9.68;7.07;;;23.20;99.90;;;;;;7024683;28;20421;-76
2022/07/21 08:33:25;;;;;;;9.67;6.97;;;23.20;99.90;;;;;;7024912;28;20567;-75
2022/07/21 08:36:47;;;;;;;8.37;7.10;;;23.30;99.70;;;;;;7025044;28;20501;-75
2022/07/21 08:40:11;;;;;;;8.85;6.80;;;23.40;99.50;;;;;;7025547;28;20448;-77
2022/07/21 08:43:35;;;;;;;10.48;7.57;;;23.40;99.90;;;;;;7023840;28;20480;-76
2022/07/21 08:46:58;;;;;;;10.00;7.50;;;23.50;99.90;;;;;;7024102;28;20433;-75
2022/07/21 08:50:23;;;;;;;9.43;6.50;;;23.60;99.70;;;;;;7017685;28;20462;-75
2022/07/21 08:53:46;;;;;;;9.52;7.10;;;23.70;98.70;;;;;;6995606;28;20466;-75
2022/07/21 08:57:08;;;;;;;9.40;6.40;;;23.70;98.80;;;;;;6995137;28;20909;-76
2022/07/21 09:00:34;;;;;;;8.15;6.40;;;23.70;97.80;;;;;;7010749;28;20476;-74
2022/07/21 09:03:56;;;;;;;10.80;6.80;;;23.60;97.90;;;;;;7023130;28;20553;-76
2022/07/21 09:07:19;;;;;;;11.00;6.88;;;23.70;98.40;;;;;;6996187;28;20561;-75
2022/07/21 09:10:41;;;;;;;14.15;6.80;;;23.80;97.60;;;;;;6995547;28;20432;-76
2022/07/21 09:14:09;;;;;;;9.35;6.85;;;23.80;97.20;;;;;;6995869;28;20848;-75
2022/07/21 09:17:32;;;;;;;10.63;6.72;;;23.80;97.40;;;;;;6995079;28;20427;-76
2022/07/21 09:20:55;;;;;;;8.52;6.55;;;23.80;96.70;;;;;;6998574;28;20510;-74
2022/07/21 09:24:25;;;;;;;9.48;6.53;;;23.80;96.60;;;;;;7029575;28;20447;-76
2022/07/21 09:27:47;;;;;;;9.30;6.90;;;23.70;96.30;;;;;;7051724;28;20436;-75
2022/07/21 09:31:11;;;;;;;8.68;6.57;;;23.80;96.90;;;;;;7050723;28;20424;-76
2022/07/21 09:34:36;;;;;;;8.93;6.75;;;23.80;96.80;;;;;;7050569;28;20908;-76
2022/07/21 09:38:12;;;;;;;9.45;6.85;;;23.90;95.90;;;;;;7032173;28;20479;-76
2022/07/21 09:41:34;;;;;;;9.02;6.57;;;24.00;96.20;;;;;;7022606;28;20437;-75
2022/07/21 09:44:59;;;;;;;8.98;6.80;;;24.00;96.10;;;;;;7021773;28;20438;-76
2022/07/21 09:48:32;;;;;;;9.20;6.40;;;24.00;95.70;;;;;;7022063;28;20450;-74
2022/07/21 09:51:55;;;;;;;7.90;6.50;;;24.20;96.70;;;;;;7021392;28;20531;-74
2022/07/21 09:55:18;;;;;;;9.30;6.60;;;24.20;96.10;;;;;;7020853;28;20529;-77
2022/07/21 09:58:41;;;;;;;8.93;6.63;;;24.40;95.80;;;;;;7021752;28;20464;-75
2022/07/21 10:02:04;;;;;;;8.35;6.63;;;24.40;96.10;;;;;;7022179;28;20769;-75
2022/07/21 10:05:26;;;;;;;8.90;6.40;;;24.60;95.80;;;;;;7021466;28;20438;-76
2022/07/21 10:08:51;;;;;;;9.77;6.97;;;24.50;95.10;;;;;;7022531;28;20437;-77
2022/07/21 10:12:13;;;;;;;8.47;6.47;;;24.60;94.80;;;;;;7021326;28;20453;-75
2022/07/21 10:15:35;;;;;;;7.95;6.43;;;24.60;94.50;;;;;;7022625;28;20433;-74
2022/07/21 10:19:04;;;;;;;9.25;6.18;;;24.70;95.10;;;;;;7022556;28;20433;-75
2022/07/21 10:22:41;;;;;;;7.57;6.00;;;24.70;94.00;;;;;;7033250;28;20831;-75
2022/07/21 10:26:06;;;;;;;7.78;5.53;;;24.60;93.60;;;;;;7027692;28;20448;-76
2022/07/21 10:29:53;;;;;;;7.93;5.57;;;24.80;92.60;;;;;;7024691;28;20942;-77
2022/07/21 10:33:19;;;;;;;8.20;5.25;;;24.80;92.90;;;;;;7020751;28;20863;-77
2022/07/21 10:36:46;;;;;;;6.88;5.03;;;24.90;91.40;;;;;;7012579;28;20485;-77
2022/07/21 10:40:35;;;;;;;8.45;5.28;;;24.80;90.80;;;;;;7006432;28;20464;-75
2022/07/21 10:43:59;;;;;;;8.00;5.20;;;24.90;90.50;;;;;;7015836;28;20924;-76
2022/07/21 10:47:25;;;;;;;7.65;5.40;;;25.00;90.00;;;;;;7001913;28;20460;-76
2022/07/21 10:50:52;;;;;;;9.20;5.25;;;25.00;90.90;;;;;;7018506;28;20444;-76
2022/07/21 10:54:22;;;;;;;7.47;4.85;;;25.00;90.50;;;;;;7019125;28;20426;-75
2022/07/21 10:57:46;;;;;;;7.10;5.10;;;25.20;89.80;;;;;;7020324;28;20462;-77
2022/07/21 11:01:24;;;;;;;7.20;5.17;;;25.10;88.60;;;;;;7022179;28;20449;-75
2022/07/21 11:05:06;;;;;;;6.97;5.32;;;25.30;89.90;;;;;;7020896;28;20988;-75
2022/07/21 11:08:32;;;;;;;8.20;5.13;;;25.30;88.80;;;;;;7019580;28;20430;-75
2022/07/21 11:12:00;;;;;;;7.40;5.03;;;25.40;89.80;;;;;;7020088;28;20426;-77
2022/07/21 11:15:58;;;;;;;7.13;4.90;;;25.40;87.30;;;;;;7020207;28;20550;-74
2022/07/21 11:19:45;;;;;;;9.60;5.00;;;25.40;88.70;;;;;;6990545;28;20435;-75
2022/07/21 11:23:07;;;;;;;8.68;5.20;;;25.30;85.80;;;;;;6988615;28;20464;-76
2022/07/21 11:26:29;;;;;;;7.53;5.03;;;25.40;85.80;;;;;;6992304;28;20471;-76
2022/07/21 11:29:54;;;;;;;8.68;5.28;;;25.50;85.70;;;;;;7023244;28;20465;-76
2022/07/21 11:33:23;;;;;;;6.75;5.05;;;25.60;85.90;;;;;;6995696;28;20557;-77
2022/07/21 11:36:47;;;;;;;12.90;9.30;;;25.70;87.10;;;;;;7048281;28;20490;-76
2022/07/21 11:40:12;;;;;;;11.05;8.13;;;25.80;86.30;;;;;;7048488;28;20841;-77
2022/07/21 11:43:41;;;;;;;7.40;5.32;;;25.90;84.20;;;;;;7047757;28;20428;-78
2022/07/21 11:47:06;;;;;;;5.90;4.53;;;25.90;82.80;;;;;;7031732;28;20430;-76
2022/07/21 11:50:29;;;;;;;7.70;4.90;;;25.90;82.60;;;;;;7018043;28;20433;-76
2022/07/21 11:53:52;;;;;;;6.65;4.72;;;26.00;80.80;;;;;;7020015;28;20425;-77
2022/07/21 11:57:17;;;;;;;7.45;4.80;;;26.00;81.50;;;;;;7019922;28;20483;-76
2022/07/21 12:00:39;;;;;;;6.53;4.80;;;26.20;81.70;;;;;;7019807;28;20428;-76
2022/07/21 12:04:01;;;;;;;6.30;4.83;;;26.30;81.30;;;;;;7018816;28;20521;-76
2022/07/21 12:07:27;;;;;;;17.47;6.67;;;26.30;79.80;;;;;;7009613;28;20966;-74
2022/07/21 12:10:50;;;;;;;8.05;6.53;;;26.30;80.20;;;;;;7020693;28;20479;-76
2022/07/21 12:14:12;;;;;;;9.32;5.50;;;26.40;80.10;;;;;;7010162;28;20523;-74
2022/07/21 12:17:37;;;;;;;7.05;4.60;;;26.50;80.10;;;;;;7028959;28;20933;-74
2022/07/21 12:21:05;;;;;;;14.30;5.85;;;26.40;78.90;;;;;;7004916;28;20969;-79
2022/07/21 12:24:49;;;;;;;6.75;4.40;;;26.50;78.10;;;;;;7004642;28;20473;-79
2022/07/21 12:28:13;;;;;;;7.75;4.80;;;26.50;77.50;;;;;;7031187;28;20858;-80
2022/07/21 12:31:37;;;;;;;19.88;16.20;;;26.60;75.80;;;;;;7039560;28;20431;-81
2022/07/21 12:34:59;;;;;;;11.37;7.70;;;26.50;77.00;;;;;;6996517;28;20504;-80
2022/07/21 12:38:21;;;;;;;7.35;5.20;;;26.50;75.80;;;;;;6996320;28;20432;-80
2022/07/21 12:41:46;;;;;;;7.40;4.60;;;26.70;76.20;;;;;;6996439;28;20434;-79
2022/07/21 12:45:17;;;;;;;5.57;4.17;;;26.80;72.90;;;;;;6997668;28;20824;-79
2022/07/21 12:48:40;;;;;;;6.30;4.35;;;26.80;73.50;;;;;;6996186;28;20431;-79
2022/07/21 12:52:02;;;;;;;6.55;4.47;;;26.90;72.20;;;;;;6995689;28;20439;-80
2022/07/21 12:55:24;;;;;;;5.47;4.10;;;27.00;74.20;;;;;;7032162;28;20476;-81
2022/07/21 12:58:47;;;;;;;6.47;3.90;;;27.30;73.20;;;;;;7032984;28;20895;-80
2022/07/21 13:02:11;;;;;;;6.18;4.00;;;27.50;70.70;;;;;;7002412;28;20738;-80
2022/07/21 13:05:33;;;;;;;5.75;3.50;;;27.50;69.00;;;;;;6996880;28;20489;-79
2022/07/21 13:08:55;;;;;;;5.70;3.80;;;27.40;67.40;;;;;;6997974;28;20913;-79
2022/07/21 13:12:18;;;;;;;6.80;3.80;;;27.50;68.50;;;;;;6996249;28;20477;-81
2022/07/21 13:15:41;;;;;;;5.15;3.60;;;27.30;68.70;;;;;;7009309;28;20430;-80
2022/07/21 13:19:05;;;;;;;4.95;3.58;;;27.10;66.30;;;;;;7023439;28;20512;-81
2022/07/21 13:22:28;;;;;;;5.68;3.67;;;27.00;66.20;;;;;;7003236;28;20789;-81
2022/07/21 13:25:51;;;;;;;5.30;3.70;;;27.00;66.80;;;;;;7022946;28;20441;-81
2022/07/21 13:29:13;;;;;;;6.38;3.75;;;27.00;68.60;;;;;;7022791;28;20486;-80
2022/07/21 13:32:37;;;;;;;6.85;3.60;;;27.20;67.70;;;;;;7023510;28;20476;-82
2022/07/21 13:36:00;;;;;;;5.40;3.40;;;27.40;67.80;;;;;;7023619;28;20430;-80
2022/07/21 13:39:26;;;;;;;5.72;3.70;;;27.20;66.90;;;;;;7022966;28;20433;-79
2022/07/21 13:42:48;;;;;;;7.00;3.60;;;27.00;67.60;;;;;;7022407;28;20434;-80
2022/07/21 13:46:11;;;;;;;5.07;3.60;;;27.00;66.00;;;;;;7022671;28;20868;-80
2022/07/21 13:49:33;;;;;;;5.63;3.67;;;27.30;66.00;;;;;;7034960;28;20424;-80
2022/07/21 13:52:56;;;;;;;5.35;3.75;;;27.50;65.20;;;;;;7048964;28;20432;-81
2022/07/21 13:56:19;;;;;;;5.03;3.47;;;27.70;64.50;;;;;;7050496;28;20459;-82
2022/07/21 13:59:42;;;;;;;5.22;3.42;;;27.70;64.40;;;;;;7028515;28;20473;-81
2022/07/21 14:03:04;;;;;;;4.90;3.45;;;27.90;66.00;;;;;;7026349;28;20490;-81
2022/07/21 14:06:26;;;;;;;5.57;3.42;;;28.10;66.30;;;;;;7025482;28;20936;-81
2022/07/21 14:09:50;;;;;;;5.60;3.50;;;28.30;63.80;;;;;;7014445;28;20465;-83
2022/07/21 14:13:12;;;;;;;5.72;3.95;;;28.30;64.60;;;;;;7050671;28;20474;-80
2022/07/21 14:16:36;;;;;;;6.53;4.63;;;28.50;65.30;;;;;;7027990;28;20466;-80
2022/07/21 14:19:58;;;;;;;6.63;4.47;;;28.70;69.40;;;;;;7021107;28;20438;-80
2022/07/21 14:23:21;;;;;;;6.45;4.47;;;28.70;71.10;;;;;;7024380;28;20463;-85
2022/07/21 14:26:45;;;;;;;6.32;4.68;;;28.80;70.70;;;;;;7022284;28;20452;-85
2022/07/21 14:30:08;;;;;;;6.45;4.60;;;28.90;68.10;;;;;;7016309;28;20473;-85
2022/07/21 14:33:30;;;;;;;6.32;4.07;;;28.90;66.20;;;;;;7038497;28;20769;-84
2022/07/21 14:36:53;;;;;;;6.60;4.97;;;28.80;65.50;;;;;;7049789;28;20440;-85
2022/07/21 14:40:18;;;;;;;7.20;5.25;;;28.70;66.90;;;;;;7042012;28;20416;-85
2022/07/21 14:43:42;;;;;;;6.50;4.78;;;28.60;68.50;;;;;;7032789;28;20425;-84
2022/07/21 14:47:04;;;;;;;6.57;4.78;;;28.80;69.40;;;;;;7022145;28;20864;-83
2022/07/21 14:50:29;;;;;;;8.82;5.40;;;28.90;67.20;;;;;;7019899;28;20488;-84
2022/07/21 14:53:51;;;;;;;10.13;4.80;;;28.60;68.40;;;;;;7037353;28;20436;-84
2022/07/21 14:57:13;;;;;;;7.68;5.30;;;28.80;68.10;;;;;;7021454;28;20467;-86
2022/07/21 15:00:36;;;;;;;7.53;5.67;;;29.10;68.90;;;;;;7021470;28;20433;-85
2022/07/21 15:03:58;;;;;;;8.55;6.20;;;29.30;68.70;;;;;;7026392;28;20977;-85
2022/07/21 15:07:20;;;;;;;7.60;5.25;;;29.50;67.70;;;;;;7029661;28;20453;-86
2022/07/21 15:10:46;;;;;;;7.43;5.28;;;29.50;68.60;;;;;;7039371;28;20433;-85
2022/07/21 15:14:08;;;;;;;7.43;4.60;;;29.60;67.80;;;;;;7053864;28;20466;-83
2022/07/21 15:17:32;;;;;;;6.35;4.80;;;29.70;66.80;;;;;;7063783;28;20427;-83
2022/07/21 15:20:54;;;;;;;6.20;4.90;;;29.80;65.20;;;;;;7049474;28;20496;-82
2022/07/21 15:24:16;;;;;;;7.07;4.80;;;29.70;65.60;;;;;;7049021;28;20435;-81
2022/07/21 15:27:39;;;;;;;6.60;4.57;;;29.60;64.60;;;;;;7024401;28;20442;-82
2022/07/21 15:31:01;;;;;;;7.30;4.55;;;29.60;65.10;;;;;;7014817;28;20494;-82
2022/07/21 15:34:25;;;;;;;7.38;4.85;;;29.80;65.00;;;;;;7018968;28;20430;-82
2022/07/21 15:37:47;;;;;;;6.33;4.57;;;29.90;65.90;;;;;;7020697;28;20867;-83
2022/07/21 15:41:09;;;;;;;7.53;4.80;;;29.80;65.50;;;;;;7020063;28;20488;-82
2022/07/21 15:44:31;;;;;;;6.45;4.53;;;29.90;64.50;;;;;;7020900;28;20799;-83
2022/07/21 15:47:54;;;;;;;5.88;4.50;;;30.10;65.80;;;;;;7029164;28;20443;-82
2022/07/21 15:51:18;;;;;;;6.40;4.50;;;30.10;63.30;;;;;;7041353;28;20430;-83
2022/07/21 15:54:40;;;;;;;6.90;4.73;;;30.20;64.50;;;;;;7041970;28;20439;-82
2022/07/21 15:58:02;;;;;;;6.97;4.70;;;30.40;63.70;;;;;;7021318;28;20426;-85
2022/07/21 16:01:25;;;;;;;6.90;4.68;;;30.50;64.70;;;;;;7022341;28;20437;-85
2022/07/21 16:04:47;;;;;;;6.70;4.60;;;30.70;62.40;;;;;;7025740;28;20425;-77
2022/07/21 16:08:11;;;;;;;7.00;4.47;;;30.60;62.20;;;;;;7026681;28;20811;-78
2022/07/21 16:11:33;;;;;;;6.45;4.43;;;30.70;62.90;;;;;;7025828;28;20437;-78
2022/07/21 16:14:55;;;;;;;6.00;4.30;;;30.90;60.80;;;;;;7035597;28;20439;-76
2022/07/21 16:18:17;;;;;;;6.22;4.35;;;31.20;60.50;;;;;;7052060;28;20444;-77
2022/07/21 16:21:39;;;;;;;6.25;4.22;;;31.20;60.40;;;;;;7042119;28;20427;-78
2022/07/21 16:25:04;;;;;;;5.93;4.20;;;30.90;59.60;;;;;;7023825;28;20426;-76
2022/07/21 16:28:26;;;;;;;7.90;4.40;;;30.70;59.20;;;;;;7024623;28;20457;-78
2022/07/21 16:31:48;;;;;;;5.80;4.35;;;30.80;58.40;;;;;;7001751;28;20431;-77
2022/07/21 16:35:15;;;;;;;8.52;6.03;;;30.60;59.60;;;;;;7027794;28;20955;-79
2022/07/21 16:38:37;;;;;;;8.60;6.57;;;30.30;58.80;;;;;;7050963;28;20463;-77
2022/07/21 16:42:01;;;;;;;9.45;7.63;;;30.00;60.70;;;;;;7020891;28;20474;-79
2022/07/21 16:45:25;;;;;;;6.20;4.18;;;30.10;61.00;;;;;;7031911;28;20892;-77
2022/07/21 16:48:48;;;;;;;6.35;4.05;;;30.30;61.30;;;;;;7037180;28;20435;-77
2022/07/21 16:52:10;;;;;;;5.88;4.00;;;30.40;60.80;;;;;;6998005;28;20427;-77
2022/07/21 16:55:33;;;;;;;6.50;4.00;;;30.60;61.30;;;;;;7015574;28;20473;-76
2022/07/21 16:58:56;;;;;;;5.43;3.97;;;30.70;60.70;;;;;;7034639;28;20470;-77
2022/07/21 17:02:18;;;;;;;6.13;3.80;;;30.80;61.30;;;;;;7024365;28;20442;-77
2022/07/21 17:05:40;;;;;;;5.88;4.10;;;31.00;60.50;;;;;;7009375;28;20512;-79
2022/07/21 17:09:02;;;;;;;6.05;3.88;;;31.00;61.20;;;;;;7047148;28;20795;-78
2022/07/21 17:12:24;;;;;;;6.45;4.10;;;31.10;60.70;;;;;;7022523;28;20761;-79
2022/07/21 17:15:48;;;;;;;5.97;4.03;;;31.20;59.80;;;;;;7021112;28;20430;-78
2022/07/21 17:19:10;;;;;;;6.33;3.97;;;31.30;60.40;;;;;;7030488;28;20441;-78
2022/07/21 17:22:32;;;;;;;7.20;4.10;;;31.30;62.20;;;;;;7034661;28;20519;-80
2022/07/21 17:25:54;;;;;;;5.70;3.77;;;31.50;61.50;;;;;;7023397;28;20488;-79
2022/07/21 17:29:16;;;;;;;7.37;4.03;;;31.70;60.50;;;;;;7039704;28;20846;-79